Latest Weather Observations for Narrandera Airport

IDN60801

Issued at 2:13 am EDT Friday 29 January 2021 (issued every 10 minutes, with the page automatically refreshed every 10 minutes)

About weather observations | Map of weather stations | Latest weather observations for NSW | Other Formats
Station Details ID: 074148 Name: NARRANDERA AIRPORT AWS Lat: -34.70 Lon: 146.51 Height: 145.0 m
Data from the previous 72 hours. | See also: Recent months at Narrandera Airport
Date/Time
EDT
Temp
°C
App
Temp
°C
Dew
Point
°C
Rel
Hum
%
Delta-T
°C
Wind Press
QNH
hPa
Press
MSL
hPa
Rain since
9am
mm
Dir  Spd
km/h
Gust
km/h
Spd
kts
Gust
kts
29/02:00am 16.7 13.0 14.9 89 1.0 ENE 28 43 15 23 1014.2 1013.4 35.2
29/01:44am 16.7 12.3 15.1 90 0.9 ENE 32 50 17 27 1014.1 1013.3 34.8
29/01:30am 16.6 11.6 15.1 91 0.9 ENE 35 50 19 27 1014.1 1013.3 34.6
29/01:00am 16.4 10.7 15.3 93 0.6 NE 39 57 21 31 1014.1 1013.3 34.4
29/12:30am 16.1 9.6 15.0 93 0.6 ENE 43 61 23 33 1014.5 1013.7 33.6
29/12:26am 16.3 10.1 15.0 92 0.8 ENE 41 61 22 33 1014.6 1013.8 33.4
29/12:00am 16.3 10.4 14.8 91 0.9 ENE 39 54 21 29 1015.6 1014.8 32.4
 
Date/Time
EDT
Temp
°C
App
Temp
°C
Dew
Point
°C
Rel
Hum
%
Delta-T
°C
Wind Press
QNH
hPa
Press
MSL
hPa
Rain since
9am
mm
Dir  Spd
km/h
Gust
km/h
Spd
kts
Gust
kts
28/11:56pm 16.4 11.3 14.8 90 0.9 ENE 35 54 19 29 1015.6 1014.8 32.4
28/11:30pm 16.5 10.9 14.5 88 1.2 ENE 37 52 20 28 1015.9 1015.1 31.6
28/11:00pm 16.8 11.1 14.3 85 1.4 ENE 37 57 20 31 1016.2 1015.4 30.8
28/10:51pm 16.8 10.7 14.1 84 1.5 ENE 39 57 21 31 1016.0 1015.2 30.8
28/10:30pm 16.9 10.9 14.4 85 1.4 ENE 39 52 21 28 1016.0 1015.2 30.6
28/10:00pm 17.0 13.1 14.5 85 1.4 E 28 39 15 21 1016.8 1016.0 30.2
28/09:30pm 17.1 12.5 14.6 85 1.4 ENE 32 46 17 25 1016.4 1015.6 30.2
28/09:00pm 17.0 11.5 14.8 87 1.3 ENE 37 52 20 28 1015.4 1014.6 30.2
28/08:30pm 17.1 11.7 15.1 88 1.2 E 37 52 20 28 1015.5 1014.7 30.0
28/08:00pm 17.2 12.0 15.5 90 1.0 E 37 52 20 28 1015.3 1014.5 29.8
28/07:30pm 17.3 11.0 15.6 90 1.0 E 43 57 23 31 1015.5 1014.7 29.2
28/07:21pm 17.4 11.9 15.7 90 1.0 E 39 57 21 31 1015.4 1014.6 29.0
28/07:00pm 17.5 11.6 15.8 90 1.0 E 41 56 22 30 1014.6 1013.8 29.0
28/06:41pm 17.5 12.2 16.2 92 0.8 E 39 57 21 31 1015.0 1014.2 28.8
28/06:30pm 17.5 11.7 16.0 91 0.9 E 41 54 22 29 1014.9 1014.1 28.6
28/06:00pm 17.6 13.7 16.5 93 0.7 E 32 43 17 23 1015.9 1015.1 28.0
28/05:30pm 17.6 13.6 16.6 94 0.6 E 33 46 18 25 1016.1 1015.3 27.4
28/05:00pm 17.8 13.5 16.8 94 0.6 E 35 48 19 26 1016.2 1015.4 26.4
28/04:30pm 18.0 14.1 17.0 94 0.6 E 33 43 18 23 1016.5 1015.7 25.0
28/04:00pm 18.1 14.7 17.6 97 0.3 E 32 43 17 23 1016.8 1016.0 23.4
28/03:30pm 18.4 14.2 17.2 93 0.7 E 35 46 19 25 1016.7 1015.9 21.8
28/03:00pm 18.6 14.5 17.4 93 0.7 E 35 48 19 26 1016.4 1015.6 20.4
28/02:48pm 18.6 15.5 17.4 93 0.7 E 30 44 16 24 1016.6 1015.8 20.2
28/02:34pm 18.8 15.0 17.1 90 1.0 E 33 50 18 27 1016.6 1015.8 19.8
28/02:30pm 18.9 14.3 17.0 89 1.2 E 37 50 20 27 1016.3 1015.5 18.8
28/02:17pm 19.2 14.8 16.6 85 1.6 E 35 54 19 29 1016.4 1015.6 17.6
28/02:00pm 19.5 13.8 16.2 81 2.0 E 41 54 22 29 1016.3 1015.5 17.6
28/01:30pm 18.9 14.1 16.5 86 1.4 E 37 48 20 26 1015.8 1015.0 17.6
28/01:06pm 18.8 12.5 15.7 82 1.8 ENE 43 61 23 33 1016.3 1015.5 16.8
28/01:00pm 19.0 12.7 15.7 81 2.0 ENE 43 57 23 31 1016.4 1015.6 16.8
28/12:47pm 19.5 13.1 15.8 79 2.2 ENE 44 65 24 35 1015.7 1014.9 16.6
28/12:30pm 19.5 13.8 16.2 81 2.0 ENE 41 56 22 30 1015.9 1015.1 16.6
28/12:06pm 19.5 13.8 16.2 81 2.0 E 41 59 22 32 1015.9 1015.1 16.6
28/12:00pm 19.5 13.9 16.5 83 1.8 E 41 57 22 31 1016.0 1015.2 16.6
28/11:43am 19.3 14.0 16.3 83 1.8 E 39 57 21 31 1016.0 1015.2 16.6
28/11:30am 19.0 13.7 16.2 84 1.7 E 39 48 21 26 1015.6 1014.8 16.6
28/11:00am 18.4 13.3 16.9 91 0.9 E 39 57 21 31 1015.5 1014.7 16.6
28/10:53am 18.3 13.0 16.3 88 1.2 E 39 57 21 31 1015.4 1014.6 16.4
28/10:30am 18.1 13.1 16.1 88 1.2 E 37 50 20 27 1015.6 1014.8 16.4
28/10:00am 17.5 12.9 16.2 92 0.8 E 35 46 19 25 1016.4 1015.6 16.4
28/09:37am 18.0 13.5 15.4 85 1.5 E 33 44 18 24 1016.6 1015.8 16.0
28/09:30am 17.9 13.1 15.7 87 1.3 E 35 46 19 25 1016.4 1015.6 15.8
28/09:26am 17.8 13.6 15.8 88 1.2 ESE 32 43 17 23 1016.2 1015.4 15.6
28/09:12am 18.7 16.6 14.8 78 2.3 W 19 32 10 17 1017.9 1017.1 4.6
28/09:07am 19.3 16.9 14.3 73 2.9 N 20 32 11 17 1018.7 1017.9 0.0
28/09:00am 19.5 15.1 14.1 71 3.1 E 30 50 16 27 1016.6 1015.8 17.0
28/08:59am 19.4 14.7 14.2 72 3.0 E 32 50 17 27 1016.1 1015.3 17.0
28/08:57am 19.4 13.7 14.2 72 3.0 E 37 50 20 27 1015.5 1014.7 17.0
28/08:30am 19.4 11.8 14.6 74 2.8 ENE 48 72 26 39 1013.4 1012.5 17.0
28/08:26am 19.1 13.0 15.2 78 2.3 ENE 41 63 22 34 1013.7 1012.8 17.0
28/08:00am 17.1 10.7 16.0 93 0.7 E 44 72 24 39 1013.7 1012.8 12.8
28/07:38am 18.2 13.5 14.9 81 1.9 ENE 33 56 18 30 1014.3 1013.5 3.6
28/07:37am 18.2 13.8 15.1 82 1.8 ENE 32 46 17 25 1014.4 1013.6 3.0
28/07:35am 18.4 14.7 14.9 80 2.0 ENE 28 46 15 25 1014.5 1013.7 2.6
28/07:30am 18.7 15.6 14.6 77 2.4 ENE 24 39 13 21 1015.1 1014.3 1.2
28/07:26am 18.8 14.9 14.3 75 2.6 ENE 28 46 15 25 1015.1 1014.3 0.2
28/07:00am 21.1 15.4 13.0 60 4.6 E 35 46 19 25 1013.6 1012.7 0.0
28/06:36am 21.0 14.9 12.9 60 4.6 E 37 56 20 30 1013.3 1012.4 0.0
28/06:30am 21.0 15.3 12.9 60 4.6 E 35 50 19 27 1013.3 1012.4 0.0
28/06:00am 21.1 14.3 13.0 60 4.6 ENE 41 52 22 28 1013.1 1012.2 0.0
28/05:47am 21.2 15.1 13.1 60 4.7 ENE 37 56 20 30 1012.9 1012.0 0.0
28/05:30am 21.2 15.1 13.1 60 4.7 ENE 37 50 20 27 1013.0 1012.1 0.0
28/05:00am 21.2 14.8 13.1 60 4.7 E 39 54 21 29 1012.6 1011.7 0.0
28/04:48am 21.2 14.8 13.1 60 4.7 E 39 57 21 31 1012.7 1011.8 0.0
28/04:30am 21.2 14.9 13.4 61 4.5 E 39 54 21 29 1012.6 1011.7 0.0
28/04:00am 21.0 15.0 13.4 62 4.4 E 37 54 20 29 1012.5 1011.6 0.0
28/03:52am 21.0 15.0 13.4 62 4.4 E 37 56 20 30 1012.6 1011.7 0.0
28/03:30am 21.1 15.6 13.5 62 4.4 E 35 48 19 26 1012.8 1011.9 0.0
28/03:16am 21.1 15.2 13.5 62 4.4 E 37 56 20 30 1013.0 1012.1 0.0
28/03:00am 21.0 16.1 13.7 63 4.2 ENE 32 46 17 25 1013.0 1012.1 0.0
28/02:47am 21.1 14.8 13.5 62 4.4 ENE 39 57 21 31 1012.7 1011.8 0.0
28/02:30am 21.1 15.6 13.5 62 4.4 ENE 35 50 19 27 1013.1 1012.2 0.0
28/02:00am 21.1 15.2 13.5 62 4.4 E 37 52 20 28 1013.0 1012.1 0.0
28/01:47am 21.1 15.6 13.5 62 4.4 E 35 54 19 29 1013.1 1012.2 0.0
28/01:30am 21.1 14.4 13.3 61 4.5 E 41 54 22 29 1013.0 1012.1 0.0
28/01:00am 21.3 14.5 13.2 60 4.7 ENE 41 57 22 31 1012.9 1012.0 0.0
28/12:37am 21.5 15.1 13.2 59 4.8 ENE 39 61 21 33 1012.8 1011.9 0.0
28/12:30am 21.5 15.9 13.2 59 4.8 ENE 35 52 19 28 1013.0 1012.1 0.0
28/12:00am 21.7 15.3 13.1 58 5.0 E 39 54 21 29 1012.9 1012.0 0.0
 
Date/Time
EDT
Temp
°C
App
Temp
°C
Dew
Point
°C
Rel
Hum
%
Delta-T
°C
Wind Press
QNH
hPa
Press
MSL
hPa
Rain since
9am
mm
Dir  Spd
km/h
Gust
km/h
Spd
kts
Gust
kts
27/11:48pm 21.8 16.1 12.9 57 5.1 ENE 35 56 19 30 1013.0 1012.1 0.0
27/11:30pm 21.8 15.6 12.6 56 5.3 ENE 37 46 20 25 1012.9 1012.0 0.0
27/11:00pm 22.1 16.3 12.6 55 5.4 ENE 35 48 19 26 1012.7 1011.8 0.0
27/10:30pm 22.5 16.6 12.4 52 5.8 E 35 56 19 30 1012.5 1011.6 0.0
27/10:24pm 22.6 16.3 12.3 52 5.9 E 37 56 20 30 1012.5 1011.6 0.0
27/10:00pm 22.9 17.3 12.2 51 6.1 E 33 48 18 26 1012.2 1011.4 0.0
27/09:57pm 23.0 17.5 12.3 51 6.1 E 33 52 18 28 1012.1 1011.3 0.0
27/09:30pm 23.7 16.4 12.7 50 6.4 E 43 57 23 31 1011.6 1010.8 0.0
27/09:00pm 25.0 19.2 13.9 50 6.6 E 37 46 20 25 1011.2 1010.4 0.0
27/08:30pm 26.3 21.7 14.7 48 7.0 ENE 32 44 17 24 1010.8 1010.0 0.0
27/08:00pm 27.6 22.5 14.9 45 7.7 ENE 35 52 19 28 1010.2 1009.4 0.0
27/07:52pm 28.2 23.6 15.1 44 8.0 E 33 52 18 28 1010.0 1009.2 0.0
27/07:30pm 29.5 24.9 15.2 41 8.8 ENE 33 48 18 26 1009.4 1008.6 0.0
27/07:00pm 30.8 26.6 15.6 39 9.5 ENE 32 44 17 24 1008.8 1008.0 0.0
27/06:30pm 33.3 31.9 17.1 38 10.4 ENE 20 28 11 15 1008.3 1007.5 0.0
27/06:00pm 34.0 33.2 11.8 26 13.2 WSW 7 11 4 6 1008.2 1007.4 0.0
27/05:30pm 35.0 34.7 12.6 26 13.5 NE 6 13 3 7 1008.4 1007.6 0.0
27/05:00pm 34.4 34.1 13.3 28 12.9 NNE 7 15 4 8 1008.7 1007.9 0.0
27/04:30pm 33.5 34.0 14.0 30 12.0 ENE 4 9 2 5 1009.0 1008.2 0.0
27/04:00pm 33.1 33.4 15.1 33 11.2 ENE 7 19 4 10 1009.2 1008.4 0.0
27/03:30pm 32.6 31.5 14.2 32 11.3 SE 13 19 7 10 1009.2 1008.4 0.0
27/03:00pm 32.1 30.9 15.1 35 10.6 SSE 15 20 8 11 1009.5 1008.7 0.0
27/02:30pm 31.9 31.1 15.0 36 10.5 SSE 13 22 7 12 1009.8 1009.0 0.0
27/02:00pm 30.6 30.2 15.1 39 9.6 SSE 11 19 6 10 1010.1 1009.3 0.0
27/01:30pm 30.6 30.4 15.8 40 9.2 S 11 20 6 11 1010.4 1009.6 0.0
27/01:00pm 29.8 29.0 16.2 43 8.5 SSE 15 20 8 11 1010.6 1009.8 0.0
27/12:30pm 28.9 29.2 16.1 46 8.0 SW 9 17 5 9 1011.0 1010.2 0.0
27/12:00pm 27.1 26.9 14.8 47 7.5 W 9 15 5 8 1011.0 1010.2 0.0
27/11:30am 26.0 26.6 15.7 53 6.3 WSW 7 13 4 7 1011.1 1010.3 0.0
27/11:00am 25.0 26.0 16.4 59 5.3 W 6 13 3 7 1011.0 1010.2 0.0
27/10:30am 23.2 23.7 15.0 60 4.9 SW 6 11 3 6 1011.2 1010.4 0.0
27/10:00am 21.3 22.3 14.2 64 4.2 SW 2 7 1 4 1010.9 1010.1 0.0
27/09:30am 20.1 20.4 13.3 65 3.9 SSW 4 9 2 5 1011.0 1010.2 0.0
27/09:00am 18.6 17.6 12.4 67 3.5 S 9 11 5 6 1011.0 1010.2 11.2
27/08:30am 17.3 16.0 12.6 74 2.6 SSW 11 13 6 7 1010.7 1009.9 11.2
27/08:00am 16.7 15.3 12.3 75 2.4 S 11 13 6 7 1010.4 1009.6 11.2
27/07:30am 15.8 14.7 12.0 78 2.1 SSW 9 11 5 6 1010.1 1009.3 11.2
27/07:00am 15.2 14.1 11.8 80 1.9 SSW 9 11 5 6 1009.6 1008.8 11.2
27/06:30am 15.0 12.7 11.8 81 1.7 SSW 15 20 8 11 1009.2 1008.4 11.2
27/06:00am 15.3 13.0 11.9 80 1.9 SSW 15 19 8 10 1008.6 1007.8 11.2
27/05:30am 15.6 12.6 12.0 79 2.0 SSW 19 24 10 13 1008.1 1007.3 11.2
27/05:00am 15.9 13.5 12.5 80 1.9 SSW 17 22 9 12 1007.9 1007.1 11.2
27/04:30am 16.2 14.2 12.7 80 1.9 SSW 15 20 8 11 1007.6 1006.7 11.2
27/04:00am 16.6 14.5 13.5 82 1.8 SSW 17 24 9 13 1007.3 1006.4 11.2
27/03:30am 17.1 15.9 14.0 82 1.8 SSW 13 19 7 10 1007.2 1006.3 11.2
27/03:00am 17.5 16.4 14.2 81 1.9 SSW 13 17 7 9 1007.0 1006.1 11.2
27/02:30am 18.1 16.7 14.4 79 2.1 SSW 15 20 8 11 1007.0 1006.1 11.2
27/02:00am 18.6 17.9 15.3 81 2.0 SSW 13 17 7 9 1007.1 1006.2 11.2
27/01:30am 19.1 18.6 16.0 82 1.9 SSW 13 15 7 8 1007.0 1006.1 11.2
27/01:00am 19.5 19.1 16.2 81 2.0 SSW 13 15 7 8 1006.9 1006.0 11.2
27/12:30am 20.3 19.2 16.3 78 2.4 SSW 17 24 9 13 1006.9 1006.0 11.2
27/12:00am 22.2 23.3 20.5 90 1.1 SW 15 20 8 11 1006.5 1005.6 11.2
 
Date/Time
EDT
Temp
°C
App
Temp
°C
Dew
Point
°C
Rel
Hum
%
Delta-T
°C
Wind Press
QNH
hPa
Press
MSL
hPa
Rain since
9am
mm
Dir  Spd
km/h
Gust
km/h
Spd
kts
Gust
kts
26/11:30pm 22.8 26.6 22.8 100 0.0 SW 7 11 4 6 1006.4 1005.5 11.2
26/11:17pm 22.7 26.7 22.7 100 0.0 SW 6 7 3 4 1006.3 1005.4 11.2
26/11:00pm 22.7 27.4 22.7 100 0.0 WSW 2 7 1 4 1006.2 1005.3 11.2
26/10:30pm 22.9 27.0 22.9 100 0.0 SW 6 9 3 5 1006.1 1005.2 11.2
26/10:00pm 23.4 28.2 22.2 93 0.8 CALM 0 0 0 0 1005.8 1004.9 11.2
26/09:30pm 23.6 28.8 22.8 95 0.5 CALM 0 0 0 0 1005.1 1004.3 11.2
26/09:00pm 23.6 27.8 22.4 93 0.8 NE 4 7 2 4 1004.6 1003.8 11.2
26/08:30pm 24.0 27.6 22.3 90 1.1 NNE 7 9 4 5 1004.3 1003.5 11.2
26/08:00pm 24.2 28.2 22.8 92 1.0 NNE 6 9 3 5 1003.9 1003.1 11.2
26/07:30pm 24.1 27.6 22.2 89 1.3 NNE 7 11 4 6 1003.3 1002.5 11.2
26/07:00pm 23.8 26.5 22.2 91 1.1 NNE 11 13 6 7 1003.2 1002.4 11.2
26/06:30pm 23.6 27.0 21.7 89 1.3 N 6 9 3 5 1003.1 1002.3 11.2
26/06:00pm 23.3 26.8 22.8 97 0.3 WSW 9 11 5 6 1003.3 1002.5 11.0
26/05:41pm 23.2 26.7 22.9 98 0.2 WSW 9 13 5 7 1003.4 1002.6 10.6
26/05:30pm 23.2 26.3 22.2 94 0.7 WSW 9 11 5 6 1003.3 1002.5 10.6
26/05:15pm 23.5 27.1 23.0 97 0.3 W 9 13 5 7 1003.3 1002.5 10.6
26/05:12pm 23.5 27.1 23.0 97 0.3 W 9 13 5 7 1003.3 1002.5 10.6
26/05:00pm 23.4 27.1 23.2 99 0.1 W 9 13 5 7 1003.1 1002.3 10.6
26/04:49pm 23.3 26.9 23.1 99 0.1 WNW 9 13 5 7 1003.2 1002.4 9.4
26/04:30pm 23.1 25.8 22.9 99 0.1 WNW 13 17 7 9 1003.3 1002.5 8.2
26/04:23pm 23.1 25.2 22.4 96 0.5 NW 15 20 8 11 1003.4 1002.6 8.0
26/04:08pm 23.3 25.4 23.1 99 0.1 NW 17 22 9 12 1003.3 1002.5 7.4
26/04:02pm 23.4 25.3 22.7 96 0.5 NW 17 20 9 11 1003.3 1002.5 6.4
26/04:00pm 23.4 25.4 22.2 93 0.8 NW 15 19 8 10 1003.3 1002.5 6.0
26/03:43pm 23.7 27.0 23.2 97 0.3 NW 11 15 6 8 1003.2 1002.4 5.6
26/03:30pm 23.6 25.9 22.0 91 1.1 NW 13 15 7 8 1003.2 1002.4 4.2
26/03:29pm 23.7 26.1 22.3 92 0.9 NW 13 20 7 11 1003.2 1002.4 4.2
26/03:26pm 23.6 25.3 21.7 89 1.3 NW 15 20 8 11 1003.2 1002.4 4.0
26/03:00pm 24.5 25.1 21.0 81 2.3 NW 19 24 10 13 1003.2 1002.4 3.6
26/02:49pm 24.8 25.9 21.9 84 1.9 WNW 19 24 10 13 1003.2 1002.4 3.6
26/02:30pm 24.8 27.2 23.6 93 0.8 NW 17 22 9 12 1002.9 1002.1 3.6
26/02:10pm 24.4 25.8 23.5 95 0.6 NW 22 30 12 16 1003.1 1002.3 3.2
26/02:00pm 24.4 26.2 23.2 93 0.8 NW 19 26 10 14 1003.2 1002.4 3.0
26/01:54pm 24.4 26.7 24.1 98 0.2 NW 19 22 10 12 1003.2 1002.4 3.0
26/01:40pm 23.9 25.5 23.2 96 0.5 NW 20 28 11 15 1003.3 1002.5 2.6
26/01:35pm 24.0 25.6 23.3 96 0.5 NW 20 26 11 14 1003.3 1002.5 2.0
26/01:30pm 24.1 24.6 22.7 92 0.9 NW 24 32 13 17 1003.3 1002.5 1.2
26/01:00pm 24.9 25.4 22.6 87 1.6 NW 24 28 13 15 1003.2 1002.4 0.6
26/12:30pm 24.1 24.0 21.4 85 1.8 NW 24 32 13 17 1003.4 1002.6 0.6
26/12:00pm 24.4 24.0 20.9 81 2.3 NW 24 32 13 17 1003.4 1002.6 0.2
26/11:30am 25.6 24.1 20.2 72 3.5 NW 28 37 15 20 1003.0 1002.2 0.0
26/11:08am 25.3 23.7 20.1 73 3.4 NW 28 46 15 25 1002.8 1002.0 0.0
26/11:00am 25.3 24.8 19.9 72 3.5 NW 22 28 12 15 1002.6 1001.8 0.0
26/10:30am 24.5 23.4 20.2 77 2.8 NW 26 33 14 18 1002.9 1002.1 0.0
26/10:00am 24.7 23.9 19.3 72 3.5 NNW 22 30 12 16 1002.9 1002.1 0.0
26/09:30am 24.2 24.9 18.8 72 3.4 NNE 13 17 7 9 1002.9 1002.1 0.0
26/09:00am 23.2 24.7 18.9 77 2.8 NE 9 11 5 6 1002.7 1001.9 1.0
26/08:30am 22.4 23.9 19.0 81 2.2 ENE 9 11 5 6 1002.3 1001.5 1.0
26/08:00am 22.4 24.8 18.0 76 2.8 S 2 7 1 4 1002.7 1001.9 1.0
26/07:30am 23.1 24.3 17.3 70 3.6 WSW 7 11 4 6 1003.2 1002.4 0.4
26/07:00am 24.6 24.7 16.6 61 5.0 WNW 11 13 6 7 1002.8 1002.0 0.0
26/06:30am 26.6 26.4 13.7 45 7.7 WSW 7 13 4 7 1002.2 1001.4 0.0
26/06:11am 26.7 25.8 13.8 45 7.7 SW 11 15 6 8 1001.8 1001.0 0.0
26/06:00am 26.8 25.4 13.5 44 7.9 SW 13 19 7 10 1001.6 1000.7 0.0
26/05:30am 27.2 24.5 12.8 41 8.5 SSW 19 24 10 13 1001.0 1000.1 0.0
26/05:00am 27.5 25.1 12.7 40 8.7 SW 17 22 9 12 1000.4 999.5 0.0
26/04:39am 27.8 25.8 11.4 36 9.4 SW 13 20 7 11 1000.1 999.2 0.0
26/04:30am 27.4 26.2 10.2 34 9.7 W 7 11 4 6 1000.0 999.1 0.0
26/04:00am 28.0 27.7 8.8 30 10.7 CALM 0 0 0 0 999.9 999.0 0.0
26/03:30am 29.1 27.2 7.7 26 11.7 SW 7 13 4 7 1000.1 999.2 0.0
26/03:00am 29.4 25.2 1.8 17 13.7 NW 13 17 7 9 1000.1 999.2 0.0
26/02:30am 30.6 24.7 1.9 16 14.3 W 22 33 12 18 1000.3 999.4 0.0

Other formats

Comma delimited format used in spreadsheet applications
http://www.bom.gov.au/fwo/IDN60801/IDN60801.95706.axf

JavaScript Object Notation format (JSON) in row-major order
http://www.bom.gov.au/fwo/IDN60801/IDN60801.95706.json

Data quality

Most of these data are generated automatically and are frequently updated. Quality checks on data are not normally performed. It is possible for incorrect values to appear. Refer to information at About Latest Weather Observations and please check the disclaimer before using these data.